sensor_id;sensor_type;location;lat;lon;timestamp;P1;durP1;ratioP1;P2;durP2;ratioP2
3712;SDS011;1872;51.406;6.856;2023-07-30T00:02:18;8.50;;;4.87;;
3712;SDS011;1872;51.406;6.856;2023-07-30T00:04:44;5.67;;;4.43;;
3712;SDS011;1872;51.406;6.856;2023-07-30T00:07:10;6.90;;;4.60;;
3712;SDS011;1872;51.406;6.856;2023-07-30T00:09:37;5.07;;;4.57;;
3712;SDS011;1872;51.406;6.856;2023-07-30T00:12:03;7.40;;;5.17;;
3712;SDS011;1872;51.406;6.856;2023-07-30T00:14:32;6.27;;;4.60;;
3712;SDS011;1872;51.406;6.856;2023-07-30T00:16:58;7.63;;;4.93;;
3712;SDS011;1872;51.406;6.856;2023-07-30T00:19:24;5.07;;;4.57;;
3712;SDS011;1872;51.406;6.856;2023-07-30T00:21:50;5.83;;;5.30;;
3712;SDS011;1872;51.406;6.856;2023-07-30T00:24:15;7.20;;;5.40;;
3712;SDS011;1872;51.406;6.856;2023-07-30T00:26:41;7.97;;;5.20;;
3712;SDS011;1872;51.406;6.856;2023-07-30T00:29:07;6.17;;;4.90;;
3712;SDS011;1872;51.406;6.856;2023-07-30T00:31:32;4.80;;;4.33;;
3712;SDS011;1872;51.406;6.856;2023-07-30T00:33:58;5.87;;;4.40;;
3712;SDS011;1872;51.406;6.856;2023-07-30T00:36:24;5.60;;;4.70;;
3712;SDS011;1872;51.406;6.856;2023-07-30T00:38:49;5.20;;;4.67;;
3712;SDS011;1872;51.406;6.856;2023-07-30T00:41:15;5.70;;;5.10;;
3712;SDS011;1872;51.406;6.856;2023-07-30T00:43:41;5.80;;;4.40;;
3712;SDS011;1872;51.406;6.856;2023-07-30T00:46:06;5.57;;;4.00;;
3712;SDS011;1872;51.406;6.856;2023-07-30T00:48:32;5.50;;;4.90;;
3712;SDS011;1872;51.406;6.856;2023-07-30T00:50:58;7.33;;;5.07;;
3712;SDS011;1872;51.406;6.856;2023-07-30T00:53:26;5.97;;;4.80;;
3712;SDS011;1872;51.406;6.856;2023-07-30T00:55:53;6.17;;;4.80;;
3712;SDS011;1872;51.406;6.856;2023-07-30T00:58:20;4.70;;;4.20;;
3712;SDS011;1872;51.406;6.856;2023-07-30T01:00:46;5.00;;;4.43;;
3712;SDS011;1872;51.406;6.856;2023-07-30T01:03:12;6.20;;;4.77;;
3712;SDS011;1872;51.406;6.856;2023-07-30T01:05:38;5.10;;;4.60;;
3712;SDS011;1872;51.406;6.856;2023-07-30T01:08:04;6.97;;;5.30;;
3712;SDS011;1872;51.406;6.856;2023-07-30T01:10:30;5.53;;;4.33;;
3712;SDS011;1872;51.406;6.856;2023-07-30T01:12:59;8.00;;;4.80;;
3712;SDS011;1872;51.406;6.856;2023-07-30T01:15:26;5.30;;;4.50;;
3712;SDS011;1872;51.406;6.856;2023-07-30T01:17:53;5.53;;;4.63;;
3712;SDS011;1872;51.406;6.856;2023-07-30T01:20:19;7.30;;;4.70;;
3712;SDS011;1872;51.406;6.856;2023-07-30T01:22:46;5.73;;;4.67;;
3712;SDS011;1872;51.406;6.856;2023-07-30T01:25:12;7.50;;;4.70;;
3712;SDS011;1872;51.406;6.856;2023-07-30T01:27:40;5.90;;;5.30;;
3712;SDS011;1872;51.406;6.856;2023-07-30T01:32:41;6.87;;;5.00;;
3712;SDS011;1872;51.406;6.856;2023-07-30T01:35:07;5.33;;;4.57;;
3712;SDS011;1872;51.406;6.856;2023-07-30T01:37:34;6.33;;;4.37;;
3712;SDS011;1872;51.406;6.856;2023-07-30T01:40:04;5.87;;;4.57;;
3712;SDS011;1872;51.406;6.856;2023-07-30T01:42:31;4.73;;;4.23;;
3712;SDS011;1872;51.406;6.856;2023-07-30T01:44:56;4.97;;;4.07;;
3712;SDS011;1872;51.406;6.856;2023-07-30T01:47:22;4.63;;;4.23;;
3712;SDS011;1872;51.406;6.856;2023-07-30T01:49:48;5.60;;;4.43;;
3712;SDS011;1872;51.406;6.856;2023-07-30T01:52:13;4.73;;;4.13;;
3712;SDS011;1872;51.406;6.856;2023-07-30T01:54:39;7.90;;;4.70;;
3712;SDS011;1872;51.406;6.856;2023-07-30T01:57:05;6.53;;;4.63;;
3712;SDS011;1872;51.406;6.856;2023-07-30T01:59:31;6.30;;;4.97;;
3712;SDS011;1872;51.406;6.856;2023-07-30T02:01:56;4.80;;;4.30;;
3712;SDS011;1872;51.406;6.856;2023-07-30T02:04:22;4.73;;;4.20;;
3712;SDS011;1872;51.406;6.856;2023-07-30T02:06:47;7.20;;;4.97;;
3712;SDS011;1872;51.406;6.856;2023-07-30T02:09:14;6.63;;;4.90;;
3712;SDS011;1872;51.406;6.856;2023-07-30T02:11:40;7.70;;;5.07;;
3712;SDS011;1872;51.406;6.856;2023-07-30T02:14:06;5.60;;;5.00;;
3712;SDS011;1872;51.406;6.856;2023-07-30T02:16:31;8.90;;;5.40;;
3712;SDS011;1872;51.406;6.856;2023-07-30T02:18:57;5.03;;;4.57;;
3712;SDS011;1872;51.406;6.856;2023-07-30T02:21:22;4.87;;;4.20;;
3712;SDS011;1872;51.406;6.856;2023-07-30T02:23:48;6.90;;;5.40;;
3712;SDS011;1872;51.406;6.856;2023-07-30T02:26:14;4.57;;;4.17;;
3712;SDS011;1872;51.406;6.856;2023-07-30T02:28:39;6.17;;;5.00;;
3712;SDS011;1872;51.406;6.856;2023-07-30T02:31:05;5.10;;;4.47;;
3712;SDS011;1872;51.406;6.856;2023-07-30T02:33:30;5.80;;;4.20;;
3712;SDS011;1872;51.406;6.856;2023-07-30T02:35:56;6.10;;;4.90;;
3712;SDS011;1872;51.406;6.856;2023-07-30T02:38:22;6.87;;;4.97;;
3712;SDS011;1872;51.406;6.856;2023-07-30T02:40:47;6.97;;;4.30;;
3712;SDS011;1872;51.406;6.856;2023-07-30T02:43:13;5.63;;;4.33;;
3712;SDS011;1872;51.406;6.856;2023-07-30T02:45:38;6.67;;;5.20;;
3712;SDS011;1872;51.406;6.856;2023-07-30T02:48:04;5.90;;;4.40;;
3712;SDS011;1872;51.406;6.856;2023-07-30T02:50:30;9.10;;;4.50;;
3712;SDS011;1872;51.406;6.856;2023-07-30T02:52:55;6.20;;;4.40;;
3712;SDS011;1872;51.406;6.856;2023-07-30T02:55:21;5.60;;;4.40;;
3712;SDS011;1872;51.406;6.856;2023-07-30T02:57:46;6.70;;;4.30;;
3712;SDS011;1872;51.406;6.856;2023-07-30T03:00:12;5.80;;;5.17;;
3712;SDS011;1872;51.406;6.856;2023-07-30T03:02:38;6.30;;;4.60;;
3712;SDS011;1872;51.406;6.856;2023-07-30T03:05:04;5.03;;;4.10;;
3712;SDS011;1872;51.406;6.856;2023-07-30T03:07:30;4.30;;;3.90;;
3712;SDS011;1872;51.406;6.856;2023-07-30T03:09:56;5.73;;;5.10;;
3712;SDS011;1872;51.406;6.856;2023-07-30T03:12:22;5.63;;;4.53;;
3712;SDS011;1872;51.406;6.856;2023-07-30T03:14:47;5.20;;;4.43;;
3712;SDS011;1872;51.406;6.856;2023-07-30T03:17:13;3.97;;;3.63;;
3712;SDS011;1872;51.406;6.856;2023-07-30T03:19:38;7.30;;;5.00;;
3712;SDS011;1872;51.406;6.856;2023-07-30T03:22:04;4.70;;;3.93;;
3712;SDS011;1872;51.406;6.856;2023-07-30T03:24:30;5.77;;;3.93;;
3712;SDS011;1872;51.406;6.856;2023-07-30T03:26:55;4.57;;;4.13;;
3712;SDS011;1872;51.406;6.856;2023-07-30T03:29:21;6.80;;;5.10;;
3712;SDS011;1872;51.406;6.856;2023-07-30T03:31:46;6.67;;;4.23;;
3712;SDS011;1872;51.406;6.856;2023-07-30T03:34:12;7.03;;;4.10;;
3712;SDS011;1872;51.406;6.856;2023-07-30T03:36:38;6.30;;;5.27;;
3712;SDS011;1872;51.406;6.856;2023-07-30T03:39:03;6.33;;;4.73;;
3712;SDS011;1872;51.406;6.856;2023-07-30T03:41:29;6.17;;;4.20;;
3712;SDS011;1872;51.406;6.856;2023-07-30T03:43:54;5.83;;;4.40;;
3712;SDS011;1872;51.406;6.856;2023-07-30T03:46:22;6.00;;;4.60;;
3712;SDS011;1872;51.406;6.856;2023-07-30T03:48:48;7.07;;;4.53;;
3712;SDS011;1872;51.406;6.856;2023-07-30T03:51:13;8.80;;;4.87;;
3712;SDS011;1872;51.406;6.856;2023-07-30T03:53:39;4.50;;;4.10;;
3712;SDS011;1872;51.406;6.856;2023-07-30T03:56:05;8.00;;;4.70;;
3712;SDS011;1872;51.406;6.856;2023-07-30T03:58:30;7.00;;;4.60;;
3712;SDS011;1872;51.406;6.856;2023-07-30T04:00:57;7.47;;;4.53;;
3712;SDS011;1872;51.406;6.856;2023-07-30T04:03:23;5.33;;;4.50;;
3712;SDS011;1872;51.406;6.856;2023-07-30T04:05:48;5.90;;;5.30;;
3712;SDS011;1872;51.406;6.856;2023-07-30T04:08:15;5.83;;;4.43;;
3712;SDS011;1872;51.406;6.856;2023-07-30T04:10:41;9.30;;;5.10;;
3712;SDS011;1872;51.406;6.856;2023-07-30T04:13:07;5.60;;;4.67;;
3712;SDS011;1872;51.406;6.856;2023-07-30T04:15:33;4.47;;;4.07;;
3712;SDS011;1872;51.406;6.856;2023-07-30T04:17:59;6.60;;;4.53;;
3712;SDS011;1872;51.406;6.856;2023-07-30T04:20:24;5.47;;;4.60;;
3712;SDS011;1872;51.406;6.856;2023-07-30T04:22:51;6.97;;;4.47;;
3712;SDS011;1872;51.406;6.856;2023-07-30T04:25:17;5.50;;;4.50;;
3712;SDS011;1872;51.406;6.856;2023-07-30T04:27:43;8.20;;;5.63;;
3712;SDS011;1872;51.406;6.856;2023-07-30T04:30:09;5.03;;;4.13;;
3712;SDS011;1872;51.406;6.856;2023-07-30T04:32:35;7.20;;;4.73;;
3712;SDS011;1872;51.406;6.856;2023-07-30T04:35:01;7.67;;;4.90;;
3712;SDS011;1872;51.406;6.856;2023-07-30T04:37:27;8.17;;;4.67;;
3712;SDS011;1872;51.406;6.856;2023-07-30T04:39:53;5.33;;;4.43;;
3712;SDS011;1872;51.406;6.856;2023-07-30T04:42:19;6.73;;;4.70;;
3712;SDS011;1872;51.406;6.856;2023-07-30T04:44:44;7.50;;;4.30;;
3712;SDS011;1872;51.406;6.856;2023-07-30T04:47:10;6.87;;;4.97;;
3712;SDS011;1872;51.406;6.856;2023-07-30T04:49:36;7.43;;;5.20;;
3712;SDS011;1872;51.406;6.856;2023-07-30T04:52:04;7.10;;;5.30;;
3712;SDS011;1872;51.406;6.856;2023-07-30T04:54:30;6.50;;;4.80;;
3712;SDS011;1872;51.406;6.856;2023-07-30T04:56:55;6.27;;;4.40;;
3712;SDS011;1872;51.406;6.856;2023-07-30T04:59:21;8.33;;;5.57;;
3712;SDS011;1872;51.406;6.856;2023-07-30T05:01:47;8.23;;;5.57;;
3712;SDS011;1872;51.406;6.856;2023-07-30T05:04:12;6.93;;;4.90;;
3712;SDS011;1872;51.406;6.856;2023-07-30T05:06:41;6.63;;;3.90;;
3712;SDS011;1872;51.406;6.856;2023-07-30T05:09:07;8.60;;;4.50;;
3712;SDS011;1872;51.406;6.856;2023-07-30T05:11:32;7.57;;;5.20;;
3712;SDS011;1872;51.406;6.856;2023-07-30T05:13:58;8.57;;;5.00;;
3712;SDS011;1872;51.406;6.856;2023-07-30T05:16:23;6.17;;;4.47;;
3712;SDS011;1872;51.406;6.856;2023-07-30T05:18:49;6.20;;;4.73;;
3712;SDS011;1872;51.406;6.856;2023-07-30T05:21:15;5.63;;;5.00;;
3712;SDS011;1872;51.406;6.856;2023-07-30T05:23:40;7.73;;;4.60;;
3712;SDS011;1872;51.406;6.856;2023-07-30T05:26:06;5.37;;;4.37;;
3712;SDS011;1872;51.406;6.856;2023-07-30T05:28:31;11.10;;;4.70;;
3712;SDS011;1872;51.406;6.856;2023-07-30T05:30:58;7.57;;;4.87;;
3712;SDS011;1872;51.406;6.856;2023-07-30T05:33:23;6.27;;;4.90;;
3712;SDS011;1872;51.406;6.856;2023-07-30T05:35:49;4.67;;;4.10;;
3712;SDS011;1872;51.406;6.856;2023-07-30T05:38:15;5.27;;;4.00;;
3712;SDS011;1872;51.406;6.856;2023-07-30T05:40:41;12.33;;;5.33;;
3712;SDS011;1872;51.406;6.856;2023-07-30T05:43:07;6.60;;;4.70;;
3712;SDS011;1872;51.406;6.856;2023-07-30T05:45:33;10.03;;;5.20;;
3712;SDS011;1872;51.406;6.856;2023-07-30T05:47:59;5.73;;;5.00;;
3712;SDS011;1872;51.406;6.856;2023-07-30T05:50:25;5.27;;;4.40;;
3712;SDS011;1872;51.406;6.856;2023-07-30T05:52:50;6.90;;;4.80;;
3712;SDS011;1872;51.406;6.856;2023-07-30T05:55:16;8.20;;;4.90;;
3712;SDS011;1872;51.406;6.856;2023-07-30T05:57:42;7.73;;;4.47;;
3712;SDS011;1872;51.406;6.856;2023-07-30T06:02:36;5.77;;;3.57;;
3712;SDS011;1872;51.406;6.856;2023-07-30T06:05:02;8.07;;;4.07;;
3712;SDS011;1872;51.406;6.856;2023-07-30T06:07:29;6.50;;;4.33;;
3712;SDS011;1872;51.406;6.856;2023-07-30T06:09:55;6.83;;;3.90;;
3712;SDS011;1872;51.406;6.856;2023-07-30T06:12:20;6.60;;;4.30;;
3712;SDS011;1872;51.406;6.856;2023-07-30T06:14:48;8.73;;;3.80;;
3712;SDS011;1872;51.406;6.856;2023-07-30T06:17:13;6.03;;;3.80;;
3712;SDS011;1872;51.406;6.856;2023-07-30T06:19:39;5.50;;;4.00;;
3712;SDS011;1872;51.406;6.856;2023-07-30T06:22:05;9.77;;;3.93;;
3712;SDS011;1872;51.406;6.856;2023-07-30T06:24:30;5.57;;;3.40;;
3712;SDS011;1872;51.406;6.856;2023-07-30T06:26:56;5.50;;;3.13;;
3712;SDS011;1872;51.406;6.856;2023-07-30T06:29:22;4.57;;;3.43;;
3712;SDS011;1872;51.406;6.856;2023-07-30T06:31:47;6.63;;;3.60;;
3712;SDS011;1872;51.406;6.856;2023-07-30T06:34:16;6.03;;;3.43;;
3712;SDS011;1872;51.406;6.856;2023-07-30T06:36:42;3.90;;;3.00;;
3712;SDS011;1872;51.406;6.856;2023-07-30T06:39:07;4.10;;;3.73;;
3712;SDS011;1872;51.406;6.856;2023-07-30T06:41:33;4.20;;;3.50;;
3712;SDS011;1872;51.406;6.856;2023-07-30T06:44:00;7.50;;;3.27;;
3712;SDS011;1872;51.406;6.856;2023-07-30T06:46:25;3.97;;;3.60;;
3712;SDS011;1872;51.406;6.856;2023-07-30T06:48:51;8.67;;;4.20;;
3712;SDS011;1872;51.406;6.856;2023-07-30T06:51:18;6.73;;;4.07;;
3712;SDS011;1872;51.406;6.856;2023-07-30T06:53:44;4.30;;;3.50;;
3712;SDS011;1872;51.406;6.856;2023-07-30T06:56:10;6.20;;;3.50;;
3712;SDS011;1872;51.406;6.856;2023-07-30T06:58:36;6.87;;;3.07;;
3712;SDS011;1872;51.406;6.856;2023-07-30T07:01:01;6.10;;;3.07;;
3712;SDS011;1872;51.406;6.856;2023-07-30T07:03:27;8.00;;;3.80;;
3712;SDS011;1872;51.406;6.856;2023-07-30T07:05:56;6.73;;;3.63;;
3712;SDS011;1872;51.406;6.856;2023-07-30T07:08:22;6.63;;;3.17;;
3712;SDS011;1872;51.406;6.856;2023-07-30T07:10:48;4.10;;;3.53;;
3712;SDS011;1872;51.406;6.856;2023-07-30T07:13:14;5.30;;;3.47;;
3712;SDS011;1872;51.406;6.856;2023-07-30T07:15:41;3.53;;;3.13;;
3712;SDS011;1872;51.406;6.856;2023-07-30T07:18:07;6.70;;;3.30;;
3712;SDS011;1872;51.406;6.856;2023-07-30T07:20:32;3.40;;;3.10;;
3712;SDS011;1872;51.406;6.856;2023-07-30T07:22:58;3.77;;;3.47;;
3712;SDS011;1872;51.406;6.856;2023-07-30T07:25:24;7.00;;;3.53;;
3712;SDS011;1872;51.406;6.856;2023-07-30T07:27:50;6.03;;;3.23;;
3712;SDS011;1872;51.406;6.856;2023-07-30T07:30:15;5.33;;;3.90;;
3712;SDS011;1872;51.406;6.856;2023-07-30T07:32:41;5.20;;;3.90;;
3712;SDS011;1872;51.406;6.856;2023-07-30T07:35:07;7.07;;;3.40;;
3712;SDS011;1872;51.406;6.856;2023-07-30T07:37:33;4.93;;;3.90;;
3712;SDS011;1872;51.406;6.856;2023-07-30T07:39:59;5.63;;;4.37;;
3712;SDS011;1872;51.406;6.856;2023-07-30T07:42:24;4.57;;;3.30;;
3712;SDS011;1872;51.406;6.856;2023-07-30T07:44:50;6.27;;;3.83;;
3712;SDS011;1872;51.406;6.856;2023-07-30T07:47:16;6.67;;;3.63;;
3712;SDS011;1872;51.406;6.856;2023-07-30T07:49:42;4.50;;;3.90;;
3712;SDS011;1872;51.406;6.856;2023-07-30T07:52:07;5.07;;;4.30;;
3712;SDS011;1872;51.406;6.856;2023-07-30T07:54:34;5.27;;;3.60;;
3712;SDS011;1872;51.406;6.856;2023-07-30T07:57:00;8.13;;;4.20;;
3712;SDS011;1872;51.406;6.856;2023-07-30T07:59:33;5.40;;;4.30;;
3712;SDS011;1872;51.406;6.856;2023-07-30T08:01:59;4.50;;;4.10;;
3712;SDS011;1872;51.406;6.856;2023-07-30T08:04:25;6.53;;;3.97;;
3712;SDS011;1872;51.406;6.856;2023-07-30T08:06:52;5.60;;;4.50;;
3712;SDS011;1872;51.406;6.856;2023-07-30T08:09:17;5.30;;;4.10;;
3712;SDS011;1872;51.406;6.856;2023-07-30T08:11:43;5.37;;;3.77;;
3712;SDS011;1872;51.406;6.856;2023-07-30T08:14:08;7.80;;;5.00;;
3712;SDS011;1872;51.406;6.856;2023-07-30T08:16:34;7.00;;;4.30;;
3712;SDS011;1872;51.406;6.856;2023-07-30T08:19:03;7.50;;;3.87;;
3712;SDS011;1872;51.406;6.856;2023-07-30T08:21:28;9.10;;;3.97;;
3712;SDS011;1872;51.406;6.856;2023-07-30T08:23:54;10.10;;;5.17;;
3712;SDS011;1872;51.406;6.856;2023-07-30T08:26:20;8.37;;;4.90;;
3712;SDS011;1872;51.406;6.856;2023-07-30T08:28:46;6.03;;;4.70;;
3712;SDS011;1872;51.406;6.856;2023-07-30T08:31:11;9.63;;;4.50;;
3712;SDS011;1872;51.406;6.856;2023-07-30T08:33:37;9.77;;;4.60;;
3712;SDS011;1872;51.406;6.856;2023-07-30T08:36:02;7.03;;;4.70;;
3712;SDS011;1872;51.406;6.856;2023-07-30T08:38:28;7.23;;;4.73;;
3712;SDS011;1872;51.406;6.856;2023-07-30T08:40:55;6.50;;;4.77;;
3712;SDS011;1872;51.406;6.856;2023-07-30T08:43:23;7.07;;;4.93;;
3712;SDS011;1872;51.406;6.856;2023-07-30T08:45:49;10.17;;;4.77;;
3712;SDS011;1872;51.406;6.856;2023-07-30T08:48:15;8.57;;;4.73;;
3712;SDS011;1872;51.406;6.856;2023-07-30T08:50:41;11.80;;;5.30;;
3712;SDS011;1872;51.406;6.856;2023-07-30T08:53:08;7.67;;;4.80;;
3712;SDS011;1872;51.406;6.856;2023-07-30T08:55:34;6.90;;;4.77;;
3712;SDS011;1872;51.406;6.856;2023-07-30T08:58:01;5.00;;;4.60;;
3712;SDS011;1872;51.406;6.856;2023-07-30T09:00:29;7.70;;;4.80;;
3712;SDS011;1872;51.406;6.856;2023-07-30T09:02:59;7.17;;;4.77;;
3712;SDS011;1872;51.406;6.856;2023-07-30T09:05:27;6.97;;;5.10;;
3712;SDS011;1872;51.406;6.856;2023-07-30T09:07:54;8.27;;;4.47;;
3712;SDS011;1872;51.406;6.856;2023-07-30T09:10:23;7.20;;;4.40;;
3712;SDS011;1872;51.406;6.856;2023-07-30T09:12:54;4.70;;;4.30;;
3712;SDS011;1872;51.406;6.856;2023-07-30T09:15:30;5.80;;;3.83;;
3712;SDS011;1872;51.406;6.856;2023-07-30T09:17:57;7.37;;;4.60;;
3712;SDS011;1872;51.406;6.856;2023-07-30T09:20:23;6.73;;;4.23;;
3712;SDS011;1872;51.406;6.856;2023-07-30T09:22:49;8.17;;;4.73;;
3712;SDS011;1872;51.406;6.856;2023-07-30T09:25:17;6.70;;;4.53;;
3712;SDS011;1872;51.406;6.856;2023-07-30T09:27:47;6.63;;;4.53;;
3712;SDS011;1872;51.406;6.856;2023-07-30T09:30:15;6.43;;;4.30;;
3712;SDS011;1872;51.406;6.856;2023-07-30T09:32:50;4.80;;;3.90;;
3712;SDS011;1872;51.406;6.856;2023-07-30T09:35:25;5.33;;;3.90;;
3712;SDS011;1872;51.406;6.856;2023-07-30T09:38:01;10.27;;;4.80;;
3712;SDS011;1872;51.406;6.856;2023-07-30T09:40:32;4.10;;;3.70;;
3712;SDS011;1872;51.406;6.856;2023-07-30T09:42:59;5.33;;;4.13;;
3712;SDS011;1872;51.406;6.856;2023-07-30T09:45:26;6.30;;;3.63;;
3712;SDS011;1872;51.406;6.856;2023-07-30T09:47:53;5.20;;;3.80;;
3712;SDS011;1872;51.406;6.856;2023-07-30T09:50:21;5.40;;;3.50;;
3712;SDS011;1872;51.406;6.856;2023-07-30T09:52:47;4.77;;;3.90;;
3712;SDS011;1872;51.406;6.856;2023-07-30T09:55:15;7.43;;;3.70;;
3712;SDS011;1872;51.406;6.856;2023-07-30T09:57:41;5.80;;;3.67;;
3712;SDS011;1872;51.406;6.856;2023-07-30T10:00:06;7.10;;;4.00;;
3712;SDS011;1872;51.406;6.856;2023-07-30T10:02:37;3.60;;;3.30;;
3712;SDS011;1872;51.406;6.856;2023-07-30T10:05:13;4.00;;;3.60;;
3712;SDS011;1872;51.406;6.856;2023-07-30T10:07:57;4.30;;;3.90;;
3712;SDS011;1872;51.406;6.856;2023-07-30T10:10:27;4.67;;;3.63;;
3712;SDS011;1872;51.406;6.856;2023-07-30T10:12:55;3.90;;;3.07;;
3712;SDS011;1872;51.406;6.856;2023-07-30T10:15:25;3.77;;;3.30;;
3712;SDS011;1872;51.406;6.856;2023-07-30T10:17:51;3.93;;;3.43;;
3712;SDS011;1872;51.406;6.856;2023-07-30T10:20:19;6.07;;;3.47;;
3712;SDS011;1872;51.406;6.856;2023-07-30T10:22:55;3.60;;;2.90;;
3712;SDS011;1872;51.406;6.856;2023-07-30T10:28:15;4.20;;;3.80;;
3712;SDS011;1872;51.406;6.856;2023-07-30T10:30:57;5.70;;;3.20;;
3712;SDS011;1872;51.406;6.856;2023-07-30T10:33:27;6.70;;;3.60;;
3712;SDS011;1872;51.406;6.856;2023-07-30T10:36:20;3.17;;;2.87;;
3712;SDS011;1872;51.406;6.856;2023-07-30T10:38:56;4.10;;;3.50;;
3712;SDS011;1872;51.406;6.856;2023-07-30T10:41:21;4.57;;;3.17;;
3712;SDS011;1872;51.406;6.856;2023-07-30T10:43:48;9.93;;;3.37;;
3712;SDS011;1872;51.406;6.856;2023-07-30T10:46:15;5.03;;;3.57;;
3712;SDS011;1872;51.406;6.856;2023-07-30T10:48:43;6.00;;;3.50;;
3712;SDS011;1872;51.406;6.856;2023-07-30T10:51:19;4.03;;;3.70;;
3712;SDS011;1872;51.406;6.856;2023-07-30T10:53:46;8.43;;;2.97;;
3712;SDS011;1872;51.406;6.856;2023-07-30T10:56:15;5.27;;;3.03;;
3712;SDS011;1872;51.406;6.856;2023-07-30T10:58:41;4.40;;;3.10;;
3712;SDS011;1872;51.406;6.856;2023-07-30T11:01:08;4.00;;;2.80;;
3712;SDS011;1872;51.406;6.856;2023-07-30T11:03:34;5.10;;;2.87;;
3712;SDS011;1872;51.406;6.856;2023-07-30T11:06:01;2.90;;;2.60;;
3712;SDS011;1872;51.406;6.856;2023-07-30T11:11:08;4.53;;;2.73;;
3712;SDS011;1872;51.406;6.856;2023-07-30T11:13:39;4.00;;;2.60;;
3712;SDS011;1872;51.406;6.856;2023-07-30T11:16:06;2.50;;;2.30;;
3712;SDS011;1872;51.406;6.856;2023-07-30T11:18:33;5.00;;;2.80;;
3712;SDS011;1872;51.406;6.856;2023-07-30T11:23:32;3.33;;;2.63;;
3712;SDS011;1872;51.406;6.856;2023-07-30T11:26:00;6.73;;;2.97;;
3712;SDS011;1872;51.406;6.856;2023-07-30T11:28:36;5.47;;;3.00;;
3712;SDS011;1872;51.406;6.856;2023-07-30T11:33:28;3.77;;;2.93;;
3712;SDS011;1872;51.406;6.856;2023-07-30T11:35:55;4.87;;;3.03;;
3712;SDS011;1872;51.406;6.856;2023-07-30T11:38:22;4.73;;;3.00;;
3712;SDS011;1872;51.406;6.856;2023-07-30T11:40:50;4.90;;;2.70;;
3712;SDS011;1872;51.406;6.856;2023-07-30T11:43:17;3.23;;;2.93;;
3712;SDS011;1872;51.406;6.856;2023-07-30T11:45:43;2.90;;;2.60;;
3712;SDS011;1872;51.406;6.856;2023-07-30T11:48:10;2.73;;;2.40;;
3712;SDS011;1872;51.406;6.856;2023-07-30T11:50:50;5.70;;;2.63;;
3712;SDS011;1872;51.406;6.856;2023-07-30T11:53:17;4.93;;;2.53;;
3712;SDS011;1872;51.406;6.856;2023-07-30T11:55:43;4.07;;;2.60;;
3712;SDS011;1872;51.406;6.856;2023-07-30T11:58:10;3.20;;;2.43;;
3712;SDS011;1872;51.406;6.856;2023-07-30T12:00:40;4.03;;;2.57;;
3712;SDS011;1872;51.406;6.856;2023-07-30T12:03:10;7.27;;;2.97;;
3712;SDS011;1872;51.406;6.856;2023-07-30T12:05:38;4.90;;;3.00;;
3712;SDS011;1872;51.406;6.856;2023-07-30T12:08:05;3.70;;;2.77;;
3712;SDS011;1872;51.406;6.856;2023-07-30T12:10:45;4.47;;;2.17;;
3712;SDS011;1872;51.406;6.856;2023-07-30T12:13:17;2.73;;;2.50;;
3712;SDS011;1872;51.406;6.856;2023-07-30T12:15:44;3.13;;;2.83;;
3712;SDS011;1872;51.406;6.856;2023-07-30T12:18:17;2.60;;;2.30;;
3712;SDS011;1872;51.406;6.856;2023-07-30T12:20:44;3.63;;;2.20;;
3712;SDS011;1872;51.406;6.856;2023-07-30T12:23:09;2.47;;;2.27;;
3712;SDS011;1872;51.406;6.856;2023-07-30T12:25:35;4.00;;;2.40;;
3712;SDS011;1872;51.406;6.856;2023-07-30T12:28:01;4.63;;;2.70;;
3712;SDS011;1872;51.406;6.856;2023-07-30T12:30:27;3.90;;;2.50;;
3712;SDS011;1872;51.406;6.856;2023-07-30T12:32:53;3.00;;;2.23;;
3712;SDS011;1872;51.406;6.856;2023-07-30T12:35:19;3.07;;;2.50;;
3712;SDS011;1872;51.406;6.856;2023-07-30T12:37:44;5.17;;;1.90;;
3712;SDS011;1872;51.406;6.856;2023-07-30T12:40:10;2.50;;;2.00;;
3712;SDS011;1872;51.406;6.856;2023-07-30T12:42:36;2.03;;;1.70;;
3712;SDS011;1872;51.406;6.856;2023-07-30T12:45:02;3.30;;;2.00;;
3712;SDS011;1872;51.406;6.856;2023-07-30T12:47:28;3.33;;;2.00;;
3712;SDS011;1872;51.406;6.856;2023-07-30T12:49:54;2.90;;;1.87;;
3712;SDS011;1872;51.406;6.856;2023-07-30T12:52:19;2.43;;;2.10;;
3712;SDS011;1872;51.406;6.856;2023-07-30T12:54:45;1.77;;;1.67;;
3712;SDS011;1872;51.406;6.856;2023-07-30T12:57:11;2.30;;;1.80;;
3712;SDS011;1872;51.406;6.856;2023-07-30T12:59:36;3.97;;;2.07;;
3712;SDS011;1872;51.406;6.856;2023-07-30T13:02:03;4.40;;;1.97;;
3712;SDS011;1872;51.406;6.856;2023-07-30T13:04:29;3.80;;;2.30;;
3712;SDS011;1872;51.406;6.856;2023-07-30T13:06:55;2.70;;;2.07;;
3712;SDS011;1872;51.406;6.856;2023-07-30T13:09:20;3.70;;;2.80;;
3712;SDS011;1872;51.406;6.856;2023-07-30T13:11:46;4.90;;;2.20;;
3712;SDS011;1872;51.406;6.856;2023-07-30T13:14:12;7.37;;;2.53;;
3712;SDS011;1872;51.406;6.856;2023-07-30T13:16:38;2.63;;;1.67;;
3712;SDS011;1872;51.406;6.856;2023-07-30T13:19:04;2.37;;;1.90;;
3712;SDS011;1872;51.406;6.856;2023-07-30T13:21:29;2.50;;;2.20;;
3712;SDS011;1872;51.406;6.856;2023-07-30T13:23:58;6.47;;;2.53;;
3712;SDS011;1872;51.406;6.856;2023-07-30T13:26:24;2.67;;;1.83;;
3712;SDS011;1872;51.406;6.856;2023-07-30T13:28:49;3.47;;;3.17;;
3712;SDS011;1872;51.406;6.856;2023-07-30T13:31:15;3.20;;;2.20;;
3712;SDS011;1872;51.406;6.856;2023-07-30T13:33:41;11.93;;;3.73;;
3712;SDS011;1872;51.406;6.856;2023-07-30T13:36:07;3.33;;;2.40;;
3712;SDS011;1872;51.406;6.856;2023-07-30T13:38:33;3.80;;;2.07;;
3712;SDS011;1872;51.406;6.856;2023-07-30T13:40:59;2.23;;;2.03;;
3712;SDS011;1872;51.406;6.856;2023-07-30T13:43:25;2.70;;;2.47;;
3712;SDS011;1872;51.406;6.856;2023-07-30T13:45:50;3.57;;;2.83;;
3712;SDS011;1872;51.406;6.856;2023-07-30T13:48:17;2.40;;;1.77;;
3712;SDS011;1872;51.406;6.856;2023-07-30T13:50:43;3.27;;;3.07;;
3712;SDS011;1872;51.406;6.856;2023-07-30T13:53:09;2.73;;;2.27;;
3712;SDS011;1872;51.406;6.856;2023-07-30T13:55:35;3.10;;;2.70;;
3712;SDS011;1872;51.406;6.856;2023-07-30T13:58:01;2.70;;;2.50;;
3712;SDS011;1872;51.406;6.856;2023-07-30T14:00:28;2.77;;;2.37;;
3712;SDS011;1872;51.406;6.856;2023-07-30T14:02:54;3.20;;;2.63;;
3712;SDS011;1872;51.406;6.856;2023-07-30T14:05:19;3.00;;;2.70;;
3712;SDS011;1872;51.406;6.856;2023-07-30T14:07:45;5.73;;;2.80;;
3712;SDS011;1872;51.406;6.856;2023-07-30T14:10:11;3.10;;;2.67;;
3712;SDS011;1872;51.406;6.856;2023-07-30T14:12:37;3.57;;;2.70;;
3712;SDS011;1872;51.406;6.856;2023-07-30T14:15:02;2.37;;;2.17;;
3712;SDS011;1872;51.406;6.856;2023-07-30T14:17:30;3.53;;;3.20;;
3712;SDS011;1872;51.406;6.856;2023-07-30T14:19:56;5.83;;;3.40;;
3712;SDS011;1872;51.406;6.856;2023-07-30T14:22:22;4.63;;;2.90;;
3712;SDS011;1872;51.406;6.856;2023-07-30T14:24:47;3.87;;;3.03;;
3712;SDS011;1872;51.406;6.856;2023-07-30T14:27:13;3.83;;;3.10;;
3712;SDS011;1872;51.406;6.856;2023-07-30T14:29:40;4.60;;;2.67;;
3712;SDS011;1872;51.406;6.856;2023-07-30T14:32:06;4.50;;;3.10;;
3712;SDS011;1872;51.406;6.856;2023-07-30T14:34:32;2.83;;;2.63;;
3712;SDS011;1872;51.406;6.856;2023-07-30T14:36:57;2.83;;;2.63;;
3712;SDS011;1872;51.406;6.856;2023-07-30T14:39:23;4.17;;;3.57;;
3712;SDS011;1872;51.406;6.856;2023-07-30T14:41:49;3.40;;;3.10;;
3712;SDS011;1872;51.406;6.856;2023-07-30T14:44:14;3.00;;;2.70;;
3712;SDS011;1872;51.406;6.856;2023-07-30T14:46:40;3.77;;;2.60;;
3712;SDS011;1872;51.406;6.856;2023-07-30T14:49:06;3.70;;;2.70;;
3712;SDS011;1872;51.406;6.856;2023-07-30T14:51:32;4.43;;;3.20;;
3712;SDS011;1872;51.406;6.856;2023-07-30T14:53:57;2.57;;;2.37;;
3712;SDS011;1872;51.406;6.856;2023-07-30T14:56:23;4.80;;;2.80;;
3712;SDS011;1872;51.406;6.856;2023-07-30T14:58:49;2.57;;;2.47;;
3712;SDS011;1872;51.406;6.856;2023-07-30T15:01:14;2.90;;;2.60;;
3712;SDS011;1872;51.406;6.856;2023-07-30T15:03:40;2.53;;;2.33;;
3712;SDS011;1872;51.406;6.856;2023-07-30T15:06:06;4.33;;;2.40;;
3712;SDS011;1872;51.406;6.856;2023-07-30T15:08:31;5.10;;;2.50;;
3712;SDS011;1872;51.406;6.856;2023-07-30T15:10:57;3.03;;;2.50;;
3712;SDS011;1872;51.406;6.856;2023-07-30T15:13:24;2.43;;;2.13;;
3712;SDS011;1872;51.406;6.856;2023-07-30T15:15:50;2.27;;;2.17;;
3712;SDS011;1872;51.406;6.856;2023-07-30T15:18:16;3.67;;;2.53;;
3712;SDS011;1872;51.406;6.856;2023-07-30T15:20:41;3.53;;;2.63;;
3712;SDS011;1872;51.406;6.856;2023-07-30T15:23:07;5.13;;;2.20;;
3712;SDS011;1872;51.406;6.856;2023-07-30T15:25:36;2.70;;;2.50;;
3712;SDS011;1872;51.406;6.856;2023-07-30T15:28:01;5.17;;;2.73;;